Time;durP1;ratioP1;P1;durP2;ratioP2;P2;SDS_P1;SDS_P2;PMS_P1;PMS_P2;Temp;Humidity;BMP_temperature;BMP_pressure;BME280_temperature;BME280_humidity;BME280_pressure;Samples;Min_cycle;Max_cycle;Signal;HPM_P1;HPM_P2
2022/02/07 00:00:06;;;;;;;12.00;1.45;;;3.50;99.90;;;;;;5045607;28;20371;-65
2022/02/07 00:03:02;;;;;;;12.30;1.60;;;3.50;99.90;;;;;;5039628;28;20057;-65
2022/02/07 00:05:26;;;;;;;12.68;1.30;;;3.40;99.90;;;;;;5046155;28;20486;-65
2022/02/07 00:07:53;;;;;;;6.95;1.05;;;3.30;99.90;;;;;;5038863;28;20064;-65
2022/02/07 00:10:20;;;;;;;7.75;1.00;;;3.20;99.90;;;;;;5040670;28;20048;-65
2022/02/07 00:12:46;;;;;;;9.25;1.13;;;3.20;99.90;;;;;;5043616;28;20037;-65
2022/02/07 00:15:12;;;;;;;5.13;0.60;;;3.20;99.90;;;;;;5042423;28;20094;-66
2022/02/07 00:17:39;;;;;;;10.02;1.30;;;3.10;99.90;;;;;;5037852;28;20060;-66
2022/02/07 00:20:09;;;;;;;4.13;0.70;;;3.10;99.90;;;;;;5040634;28;20221;-66
2022/02/07 00:22:35;;;;;;;6.00;1.38;;;3.00;99.90;;;;;;5043194;28;20029;-66
2022/02/07 00:25:01;;;;;;;6.95;0.80;;;3.00;99.90;;;;;;5043175;28;20037;-65
2022/02/07 00:27:26;;;;;;;6.82;1.02;;;3.10;99.90;;;;;;5041925;28;20028;-66
2022/02/07 00:29:52;;;;;;;5.75;0.93;;;3.00;99.90;;;;;;5043631;28;20045;-66
2022/02/07 00:32:18;;;;;;;8.75;1.02;;;3.00;99.90;;;;;;5055759;28;20500;-66
2022/02/07 00:34:43;;;;;;;8.10;0.95;;;3.00;99.90;;;;;;5042120;28;20406;-66
2022/02/07 00:37:09;;;;;;;8.63;1.63;;;3.00;99.90;;;;;;5042672;28;20037;-66
2022/02/07 00:39:45;;;;;;;8.65;1.33;;;3.10;99.90;;;;;;5044496;28;20037;-66
2022/02/07 00:42:21;;;;;;;11.45;1.83;;;3.20;99.90;;;;;;5040166;28;20091;-66
2022/02/07 00:44:49;;;;;;;15.07;2.60;;;3.20;99.90;;;;;;5043450;28;20076;-66
2022/02/07 00:47:15;;;;;;;15.90;2.42;;;3.20;99.90;;;;;;5040692;28;20056;-66
2022/02/07 00:49:42;;;;;;;8.18;1.17;;;3.30;99.90;;;;;;5038854;28;20040;-67
2022/02/07 00:52:08;;;;;;;11.65;1.55;;;3.40;99.90;;;;;;5025201;28;20033;-67
2022/02/07 00:54:34;;;;;;;14.45;2.00;;;3.40;99.90;;;;;;5044362;28;20147;-67
2022/02/07 00:57:00;;;;;;;16.45;2.45;;;3.40;99.90;;;;;;5040017;28;20040;-66
2022/02/07 00:59:26;;;;;;;17.20;2.67;;;3.40;99.90;;;;;;5041874;28;20033;-66
2022/02/07 01:01:52;;;;;;;8.75;1.27;;;3.30;99.90;;;;;;5040922;28;20037;-66
2022/02/07 01:04:17;;;;;;;11.77;1.88;;;3.30;99.90;;;;;;5041157;28;20507;-66
2022/02/07 01:06:43;;;;;;;12.43;1.67;;;3.30;99.90;;;;;;5038865;28;20045;-66
2022/02/07 01:09:17;;;;;;;14.60;2.30;;;3.30;99.90;;;;;;5041994;28;20060;-67
2022/02/07 01:12:07;;;;;;;12.30;2.10;;;3.20;99.90;;;;;;5039859;28;20132;-66
2022/02/07 01:22:42;;;;;;;15.18;1.65;;;3.30;99.90;;;;;;5039835;28;20044;-66
2022/02/07 01:54:51;;;;;;;9.60;1.27;;;3.60;99.90;;;;;;5039283;28;20293;-66
2022/02/07 01:57:17;;;;;;;11.68;1.33;;;3.60;99.90;;;;;;5039250;28;20064;-66
2022/02/07 01:59:43;;;;;;;7.28;1.20;;;3.60;99.90;;;;;;5041522;28;20033;-66
2022/02/07 02:02:09;;;;;;;11.52;1.63;;;3.60;99.90;;;;;;5038319;28;20063;-66
2022/02/07 02:04:34;;;;;;;16.55;1.98;;;3.60;99.90;;;;;;5039619;28;20180;-66
2022/02/07 02:07:01;;;;;;;18.23;1.75;;;3.70;99.90;;;;;;5042508;28;20178;-66
2022/02/07 02:09:29;;;;;;;15.43;2.05;;;3.70;99.90;;;;;;5042083;28;20083;-66
2022/02/07 02:11:54;;;;;;;12.43;2.15;;;3.70;99.90;;;;;;5037676;28;20128;-66
2022/02/07 02:17:51;;;;;;;11.88;2.08;;;3.70;99.90;;;;;;5036993;28;20065;-66
2022/02/07 02:36:31;;;;;;;11.38;1.77;;;4.00;99.90;;;;;;5038613;28;20040;-66
2022/02/07 02:46:55;;;;;;;15.68;2.45;;;4.00;99.90;;;;;;5037357;28;20496;-67
2022/02/07 02:49:21;;;;;;;16.60;2.35;;;4.00;99.90;;;;;;5043474;28;20037;-66
2022/02/07 02:51:47;;;;;;;11.75;2.03;;;4.00;99.90;;;;;;5042253;28;20401;-66
2022/02/07 02:54:13;;;;;;;17.65;2.83;;;4.10;99.90;;;;;;5039239;28;20033;-67
2022/02/07 02:56:39;;;;;;;14.95;2.72;;;4.20;99.90;;;;;;5042218;28;20048;-66
2022/02/07 02:59:04;;;;;;;13.10;2.08;;;4.20;99.90;;;;;;5038905;28;20037;-66
2022/02/07 03:01:31;;;;;;;15.30;1.80;;;4.20;99.90;;;;;;5036659;28;20504;-66
2022/02/07 03:03:57;;;;;;;12.85;2.03;;;4.20;99.90;;;;;;5040488;28;20136;-66
2022/02/07 03:06:23;;;;;;;16.48;2.55;;;4.10;99.90;;;;;;5040143;28;20660;-65
2022/02/07 03:08:48;;;;;;;14.90;2.85;;;4.10;99.90;;;;;;5040238;28;20033;-66
2022/02/07 03:11:18;;;;;;;15.15;2.45;;;4.10;99.90;;;;;;5039493;28;20167;-67
2022/02/07 03:13:56;;;;;;;17.60;2.17;;;4.10;99.90;;;;;;5039269;28;20394;-67
2022/02/07 03:16:39;;;;;;;24.35;2.88;;;4.10;99.90;;;;;;5037377;28;20029;-67
2022/02/07 03:19:06;;;;;;;21.40;4.07;;;4.10;99.90;;;;;;5023313;28;21439;-67
2022/02/07 03:21:32;;;;;;;17.13;3.53;;;4.10;99.90;;;;;;5040091;28;20064;-67
2022/02/07 03:23:58;;;;;;;18.45;2.90;;;4.20;99.90;;;;;;5039374;28;20469;-67
2022/02/07 03:26:23;;;;;;;17.88;2.40;;;4.20;99.90;;;;;;5037083;28;20041;-67
2022/02/07 03:28:50;;;;;;;16.58;2.60;;;4.20;99.90;;;;;;5041704;28;20120;-67
2022/02/07 03:31:18;;;;;;;24.60;3.58;;;4.30;99.90;;;;;;5038090;28;20100;-67
2022/02/07 03:33:44;;;;;;;22.38;3.67;;;4.30;99.90;;;;;;5036918;28;20087;-67
2022/02/07 03:36:11;;;;;;;17.08;2.90;;;4.40;99.90;;;;;;5040865;28;20272;-67
2022/02/07 03:38:38;;;;;;;19.58;3.22;;;4.40;99.90;;;;;;5038246;28;20061;-67
2022/02/07 03:41:04;;;;;;;21.35;2.55;;;4.40;99.90;;;;;;5042012;28;20041;-67
2022/02/07 03:43:30;;;;;;;15.98;2.85;;;4.50;99.90;;;;;;5037222;28;20084;-67
2022/02/07 03:45:56;;;;;;;20.75;4.40;;;4.50;99.90;;;;;;5043697;28;20469;-67
2022/02/07 03:48:22;;;;;;;16.63;2.30;;;4.60;99.90;;;;;;5042278;28;20389;-67
2022/02/07 03:50:48;;;;;;;15.68;2.03;;;4.60;99.90;;;;;;5045153;28;20045;-68
2022/02/07 03:53:14;;;;;;;16.05;2.13;;;4.60;99.90;;;;;;5028380;28;20132;-67
2022/02/07 03:55:41;;;;;;;19.65;2.95;;;4.60;99.90;;;;;;5039507;28;20503;-67
2022/02/07 03:58:07;;;;;;;20.45;3.10;;;4.70;99.90;;;;;;5043652;28;20041;-67
2022/02/07 04:00:34;;;;;;;18.77;2.50;;;4.60;99.90;;;;;;5027236;28;20044;-67
2022/02/07 04:03:04;;;;;;;19.27;2.70;;;4.60;99.90;;;;;;5043984;28;20049;-67
2022/02/07 04:07:59;;;;;;;19.48;2.58;;;4.50;99.90;;;;;;5044149;28;20052;-67
2022/02/07 04:10:26;;;;;;;17.25;2.72;;;4.50;99.90;;;;;;5042354;28;20386;-67
2022/02/07 04:12:58;;;;;;;14.35;2.55;;;4.40;99.90;;;;;;5038322;28;20041;-67
2022/02/07 04:15:24;;;;;;;21.70;3.15;;;4.40;99.90;;;;;;5044101;28;20041;-67
2022/02/07 04:17:59;;;;;;;22.92;3.03;;;4.40;99.90;;;;;;5040049;28;20037;-67
2022/02/07 04:20:24;;;;;;;18.45;2.20;;;4.40;99.90;;;;;;5041307;28;20116;-67
2022/02/07 04:22:50;;;;;;;21.80;3.47;;;4.30;99.90;;;;;;5044293;28;20140;-67
2022/02/07 04:25:17;;;;;;;26.25;3.28;;;4.30;99.90;;;;;;5045959;28;20048;-67
2022/02/07 04:27:43;;;;;;;27.90;4.10;;;4.30;99.90;;;;;;5038715;28;20456;-67
2022/02/07 04:30:10;;;;;;;18.67;2.78;;;4.40;99.90;;;;;;5041342;28;20041;-67
2022/02/07 04:32:35;;;;;;;22.35;3.55;;;4.40;99.90;;;;;;5041735;28;20094;-67
2022/02/07 04:35:01;;;;;;;18.20;3.05;;;4.50;99.90;;;;;;5039325;28;20444;-67
2022/02/07 04:37:27;;;;;;;29.67;3.78;;;4.40;99.90;;;;;;5041705;28;20052;-67
2022/02/07 04:39:53;;;;;;;25.33;3.63;;;4.60;99.90;;;;;;5042985;28;20033;-67
2022/02/07 04:42:22;;;;;;;23.58;4.30;;;4.50;99.90;;;;;;5039773;28;20045;-67
2022/02/07 04:47:54;;;;;;;;;;;4.50;99.90;;;;;;5043651;28;20041;-67
2022/02/07 04:58:24;;;;;;;27.58;4.38;;;4.40;99.90;;;;;;5043869;28;20055;-68
2022/02/07 05:03:35;;;;;;;28.00;4.00;;;4.40;99.90;;;;;;5040985;28;20123;-67
2022/02/07 05:14:14;;;;;;;17.47;3.27;;;4.50;99.90;;;;;;5041689;28;20521;-67
2022/02/07 05:16:41;;;;;;;20.70;3.47;;;4.50;99.90;;;;;;5037870;28;20037;-68
2022/02/07 05:19:06;;;;;;;27.13;3.47;;;4.40;99.90;;;;;;5052577;28;20288;-67
2022/02/07 05:21:32;;;;;;;26.60;4.03;;;4.40;99.90;;;;;;5043399;28;20064;-67
2022/02/07 05:23:58;;;;;;;28.10;3.60;;;4.40;99.90;;;;;;5042402;28;20044;-67
2022/02/07 05:26:25;;;;;;;23.00;3.75;;;4.40;99.90;;;;;;5041212;28;20091;-67
2022/02/07 05:28:51;;;;;;;21.70;4.35;;;4.40;99.90;;;;;;5039257;28;20131;-67
2022/02/07 05:31:20;;;;;;;28.02;3.72;;;4.30;99.90;;;;;;5038692;28;20026;-67
2022/02/07 05:33:46;;;;;;;28.02;4.15;;;4.30;99.90;;;;;;5045255;28;20068;-67
2022/02/07 05:36:12;;;;;;;35.97;13.90;;;4.30;99.90;;;;;;5041186;28;20088;-67
2022/02/07 05:38:41;;;;;;;19.63;3.97;;;4.30;99.90;;;;;;5040609;28;20210;-67
2022/02/07 05:41:08;;;;;;;22.00;3.03;;;4.40;99.90;;;;;;5039514;28;20068;-67
2022/02/07 05:43:41;;;;;;;9.93;2.03;;;4.50;99.90;;;;;;5038191;28;20852;-66
2022/02/07 05:46:07;;;;;;;19.17;2.65;;;4.60;99.90;;;;;;5041037;28;20048;-66
2022/02/07 05:48:33;;;;;;;13.13;2.20;;;4.60;99.90;;;;;;5045367;28;21025;-66
2022/02/07 05:50:58;;;;;;;21.52;3.10;;;4.70;99.90;;;;;;5040729;28;20033;-66
2022/02/07 05:53:24;;;;;;;25.13;3.17;;;4.70;99.90;;;;;;5040054;28;20045;-67
2022/02/07 05:55:50;;;;;;;24.20;3.88;;;4.60;99.90;;;;;;5039170;28;20393;-67
2022/02/07 05:58:15;;;;;;;24.95;3.92;;;4.50;99.90;;;;;;5043725;28;20029;-67
2022/02/07 06:00:41;;;;;;;30.02;4.55;;;4.40;99.90;;;;;;5034194;28;20578;-67
2022/02/07 06:03:07;;;;;;;24.80;3.35;;;4.40;99.90;;;;;;5039921;28;20064;-67
2022/02/07 06:05:33;;;;;;;24.63;3.70;;;4.30;99.90;;;;;;5038812;28;20390;-67
2022/02/07 06:07:59;;;;;;;18.45;3.53;;;4.20;99.90;;;;;;5036773;28;20250;-67
2022/02/07 06:10:25;;;;;;;22.55;3.90;;;4.10;99.90;;;;;;5036968;28;20041;-68
2022/02/07 06:12:51;;;;;;;16.60;3.40;;;4.10;99.90;;;;;;5038690;28;20068;-67
2022/02/07 06:15:18;;;;;;;22.08;3.05;;;4.00;99.90;;;;;;5034839;28;20041;-67
2022/02/07 06:17:48;;;;;;;24.20;3.90;;;4.00;99.90;;;;;;5036196;28;20516;-67
2022/02/07 06:20:13;;;;;;;28.80;3.80;;;4.00;99.90;;;;;;5042143;28;20389;-68
2022/02/07 06:22:39;;;;;;;22.38;3.25;;;3.90;99.90;;;;;;5037960;28;20046;-67
2022/02/07 06:25:05;;;;;;;22.85;3.40;;;3.90;99.90;;;;;;5039985;28;20037;-67
2022/02/07 06:27:31;;;;;;;22.38;3.72;;;3.90;99.90;;;;;;5025043;28;20045;-67
2022/02/07 06:29:57;;;;;;;18.33;3.20;;;3.90;99.90;;;;;;5038949;28;20480;-67
2022/02/07 06:32:22;;;;;;;18.08;3.30;;;3.90;99.90;;;;;;5038000;28;20029;-67
2022/02/07 06:34:48;;;;;;;21.30;3.00;;;3.90;99.90;;;;;;5040085;28;20040;-67
2022/02/07 06:37:14;;;;;;;24.02;3.05;;;3.90;99.90;;;;;;5039773;28;20081;-68
2022/02/07 06:39:40;;;;;;;15.55;2.72;;;3.80;99.90;;;;;;5043699;28;20037;-68
2022/02/07 06:42:06;;;;;;;17.08;3.15;;;3.80;99.90;;;;;;5044357;28;20052;-68
2022/02/07 06:44:32;;;;;;;20.38;3.05;;;3.80;99.90;;;;;;5042227;28;20067;-68
2022/02/07 06:46:57;;;;;;;20.45;2.65;;;3.80;99.90;;;;;;5024158;28;20057;-68
2022/02/07 06:49:23;;;;;;;17.05;2.53;;;3.80;99.90;;;;;;5039980;28;20032;-68
2022/02/07 06:51:49;;;;;;;18.67;2.80;;;3.80;99.90;;;;;;5037656;28;20037;-68
2022/02/07 06:54:15;;;;;;;19.17;2.92;;;3.80;99.90;;;;;;5040223;28;20037;-68
2022/02/07 06:56:41;;;;;;;19.00;2.97;;;3.80;99.90;;;;;;5032679;28;20401;-68
2022/02/07 06:59:07;;;;;;;18.73;2.05;;;3.70;99.90;;;;;;5037709;28;20069;-68
2022/02/07 07:01:33;;;;;;;15.38;2.42;;;3.70;99.90;;;;;;5041736;28;20045;-68
2022/02/07 07:03:59;;;;;;;16.17;2.80;;;3.60;99.90;;;;;;5042091;28;20073;-68
2022/02/07 07:06:25;;;;;;;17.30;2.47;;;3.60;99.90;;;;;;5042858;28;20081;-68
2022/02/07 07:08:54;;;;;;;16.10;2.97;;;3.60;99.90;;;;;;5036406;28;20056;-68
2022/02/07 07:11:23;;;;;;;24.17;4.28;;;3.50;99.90;;;;;;5041054;28;20034;-68
2022/02/07 07:13:56;;;;;;;14.20;1.92;;;3.50;99.90;;;;;;5039659;28;20208;-68
2022/02/07 07:18:48;;;;;;;15.35;1.35;;;3.30;99.90;;;;;;5039756;28;20033;-68
2022/02/07 07:21:14;;;;;;;9.13;1.42;;;3.20;99.90;;;;;;5048045;28;20041;-68
2022/02/07 07:23:40;;;;;;;13.38;1.75;;;3.20;99.90;;;;;;5043218;28;20458;-68
2022/02/07 07:26:07;;;;;;;13.75;1.65;;;3.10;99.90;;;;;;5042621;28;20053;-68
2022/02/07 07:28:34;;;;;;;10.75;1.58;;;3.10;99.90;;;;;;5043852;28;20041;-68
2022/02/07 07:31:01;;;;;;;12.38;1.45;;;3.00;99.90;;;;;;5041548;28;20041;-68
2022/02/07 07:33:29;;;;;;;16.60;2.00;;;3.00;99.90;;;;;;5043925;28;20388;-68
2022/02/07 07:35:56;;;;;;;12.13;1.48;;;3.00;99.90;;;;;;5041612;28;20489;-68
2022/02/07 07:38:23;;;;;;;13.85;2.03;;;3.10;99.90;;;;;;5039696;28;20064;-68
2022/02/07 07:40:49;;;;;;;20.92;2.45;;;3.10;99.90;;;;;;5046172;28;20182;-68
2022/02/07 07:43:15;;;;;;;23.85;3.45;;;3.10;99.90;;;;;;5045379;28;20071;-68
2022/02/07 07:46:17;;;;;;;17.60;2.72;;;3.20;99.90;;;;;;5041830;28;20168;-68
2022/02/07 07:48:35;;;;;;;17.70;3.67;;;3.30;99.90;;;;;;5047023;28;20059;-68
2022/02/07 08:01:59;;;;;;;25.17;3.85;;;4.30;99.90;;;;;;5044121;28;20052;-68
2022/02/07 08:04:31;;;;;;;24.70;4.00;;;4.20;99.90;;;;;;5024169;28;20175;-68
2022/02/07 08:07:07;;;;;;;27.25;3.63;;;4.20;99.90;;;;;;5041992;28;20059;-68
2022/02/07 08:12:03;;;;;;;23.85;3.08;;;4.70;99.90;;;;;;5044438;28;20410;-68
2022/02/07 08:14:34;;;;;;;21.85;3.78;;;5.00;99.90;;;;;;5044267;28;20040;-68
2022/02/07 08:16:59;;;;;;;25.00;4.15;;;5.50;99.90;;;;;;5042143;28;20635;-68
2022/02/07 08:19:27;;;;;;;21.95;3.35;;;5.90;99.90;;;;;;5041215;28;20419;-68
2022/02/07 08:21:54;;;;;;;27.95;4.60;;;6.30;99.90;;;;;;5039343;28;20048;-68
2022/02/07 08:24:20;;;;;;;20.13;3.75;;;6.70;99.90;;;;;;5047584;28;20056;-68
2022/02/07 08:26:47;;;;;;;26.90;4.20;;;7.10;99.90;;;;;;5024311;28;20041;-69
2022/02/07 08:29:13;;;;;;;22.05;3.83;;;7.30;99.90;;;;;;5041404;28;20048;-68
2022/02/07 08:31:38;;;;;;;25.20;3.85;;;7.40;99.90;;;;;;5038427;28;20041;-68
2022/02/07 08:34:04;;;;;;;23.73;3.85;;;7.30;99.90;;;;;;5041232;28;20056;-68
2022/02/07 08:36:30;;;;;;;23.52;3.60;;;7.30;99.90;;;;;;5043867;28;20401;-68
2022/02/07 08:38:56;;;;;;;26.05;4.32;;;7.50;99.90;;;;;;5040854;28;20424;-68
2022/02/07 08:41:21;;;;;;;20.95;3.85;;;7.80;99.90;;;;;;5027850;28;20519;-69
2022/02/07 08:43:47;;;;;;;26.98;4.78;;;8.10;99.90;;;;;;5041806;28;20081;-68
2022/02/07 08:46:13;;;;;;;21.65;4.50;;;8.40;99.90;;;;;;5040274;28;20053;-68
2022/02/07 08:48:40;;;;;;;25.00;4.00;;;8.70;99.90;;;;;;5038412;28;20140;-69
2022/02/07 08:51:06;;;;;;;23.30;4.00;;;8.80;99.90;;;;;;5040176;28;20080;-68
2022/02/07 08:53:38;;;;;;;18.85;4.07;;;9.10;99.90;;;;;;5040596;28;20068;-68
2022/02/07 08:56:05;;;;;;;27.80;4.43;;;9.40;99.90;;;;;;5037493;28;20114;-68
2022/02/07 08:58:34;;;;;;;22.70;4.07;;;9.60;99.90;;;;;;5041433;28;20049;-68
2022/02/07 09:09:09;;;;;;;31.20;5.10;;;10.40;99.90;;;;;;5045262;28;20113;-68
2022/02/07 09:11:35;;;;;;;24.38;4.25;;;10.70;99.90;;;;;;5038749;28;20046;-68
2022/02/07 09:14:09;;;;;;;28.20;4.80;;;10.90;99.90;;;;;;5044134;28;20037;-68
2022/02/07 09:16:36;;;;;;;25.73;4.27;;;11.20;99.90;;;;;;5043419;28;20493;-68
2022/02/07 09:19:03;;;;;;;28.17;4.68;;;11.30;99.90;;;;;;5047610;28;20045;-68
2022/02/07 09:21:29;;;;;;;22.70;3.55;;;11.30;99.20;;;;;;5039182;28;20096;-69
2022/02/07 09:23:56;;;;;;;21.67;4.93;;;11.20;99.90;;;;;;5040464;28;20041;-69
2022/02/07 09:26:23;;;;;;;25.30;4.57;;;11.30;99.10;;;;;;5041554;28;20072;-69
2022/02/07 09:28:48;;;;;;;24.73;4.40;;;11.40;98.00;;;;;;5042596;28;20069;-69
2022/02/07 09:31:15;;;;;;;23.77;4.70;;;11.40;98.40;;;;;;5038364;28;20116;-69
2022/02/07 09:33:43;;;;;;;28.08;4.85;;;11.30;97.70;;;;;;5042513;28;20036;-69
2022/02/07 09:36:09;;;;;;;20.40;4.18;;;11.40;98.20;;;;;;5039631;28;20052;-69
2022/02/07 09:38:35;;;;;;;23.98;5.78;;;11.60;97.60;;;;;;5036312;28;20405;-69
2022/02/07 09:41:00;;;;;;;25.63;5.07;;;11.60;97.40;;;;;;5041318;28;20192;-69
2022/02/07 09:43:34;;;;;;;30.00;5.28;;;11.50;96.50;;;;;;5038936;28;20048;-69
2022/02/07 09:46:08;;;;;;;27.27;5.80;;;11.60;96.90;;;;;;5039701;28;20044;-69
2022/02/07 09:48:38;;;;;;;28.80;5.07;;;11.70;96.50;;;;;;5042795;28;20163;-69
2022/02/07 09:51:07;;;;;;;26.95;4.88;;;12.00;96.60;;;;;;5037871;28;20060;-69
2022/02/07 09:53:34;;;;;;;18.33;3.97;;;12.20;96.10;;;;;;5040002;28;20033;-69
2022/02/07 09:56:01;;;;;;;17.75;3.60;;;12.10;94.40;;;;;;5019989;28;20118;-69
2022/02/07 09:58:27;;;;;;;18.92;3.72;;;12.00;93.00;;;;;;5041484;28;20128;-69
2022/02/07 10:00:58;;;;;;;20.63;4.05;;;11.60;93.80;;;;;;5034309;28;20110;-69
2022/02/07 10:03:32;;;;;;;17.20;3.95;;;11.30;93.70;;;;;;5035457;28;20160;-69
2022/02/07 10:06:05;;;;;;;19.80;3.60;;;11.20;94.00;;;;;;5042049;28;20473;-69
2022/02/07 10:14:00;;;;;;;16.40;2.97;;;10.70;94.40;;;;;;5039025;28;20056;-69
2022/02/07 10:17:45;;;;;;;24.05;4.13;;;10.70;94.70;;;;;;5037509;28;20168;-69
2022/02/07 10:43:32;;;;;;;17.90;3.38;;;12.30;91.00;;;;;;5039024;28;20131;-70
2022/02/07 10:48:38;;;;;;;20.08;3.10;;;11.80;90.10;;;;;;5034898;28;20363;-69
2022/02/07 10:51:20;;;;;;;20.33;3.97;;;11.30;90.10;;;;;;5041350;28;20067;-70
2022/02/07 10:53:47;;;;;;;21.15;3.42;;;10.90;91.60;;;;;;5040497;28;20049;-70
2022/02/07 10:56:15;;;;;;;22.95;4.47;;;10.50;92.10;;;;;;5045780;28;20075;-70
2022/02/07 10:58:41;;;;;;;20.17;3.75;;;9.80;93.10;;;;;;5042567;28;20049;-70
2022/02/07 11:01:22;;;;;;;23.67;4.63;;;9.30;94.40;;;;;;5039770;28;20128;-70
2022/02/07 11:03:52;;;;;;;21.70;3.35;;;8.90;94.50;;;;;;5043556;28;20086;-70
2022/02/07 11:06:26;;;;;;;20.50;3.88;;;9.00;94.70;;;;;;5041514;28;20049;-69
2022/02/07 11:09:08;;;;;;;20.25;3.85;;;9.70;93.60;;;;;;5040713;28;20057;-70
2022/02/07 11:16:50;;;;;;;20.40;3.70;;;9.30;94.20;;;;;;5045947;28;20037;-70
2022/02/07 11:19:47;;;;;;;23.45;4.00;;;9.10;95.00;;;;;;5040163;28;20083;-70
2022/02/07 11:27:32;;;;;;;20.17;3.63;;;8.60;95.20;;;;;;5041953;28;20049;-70
2022/02/07 11:29:59;;;;;;;18.77;3.40;;;8.50;95.80;;;;;;5042713;28;20056;-70
2022/02/07 11:32:40;;;;;;;24.88;5.10;;;8.40;96.20;;;;;;5041517;28;20041;-69
2022/02/07 11:35:09;;;;;;;25.70;4.22;;;8.30;95.60;;;;;;5042477;28;20056;-69
2022/02/07 11:37:35;;;;;;;19.38;3.53;;;8.30;94.50;;;;;;5039344;28;20139;-70
2022/02/07 11:40:01;;;;;;;20.33;3.10;;;8.30;95.10;;;;;;5041633;28;20427;-70
2022/02/07 11:42:28;;;;;;;15.23;3.50;;;8.20;95.40;;;;;;5043520;28;20043;-70
2022/02/07 11:44:54;;;;;;;22.98;4.32;;;8.20;96.10;;;;;;5041510;28;20150;-70
2022/02/07 11:47:22;;;;;;;21.02;3.78;;;8.10;96.10;;;;;;5042979;28;20037;-70
2022/02/07 11:49:50;;;;;;;17.73;3.97;;;8.10;95.50;;;;;;5044089;28;20182;-71
2022/02/07 11:52:26;;;;;;;20.40;3.58;;;7.90;95.70;;;;;;5023834;28;20049;-70
2022/02/07 11:54:57;;;;;;;26.65;3.35;;;7.80;96.00;;;;;;5030474;28;20493;-71
2022/02/07 11:57:30;;;;;;;18.77;3.20;;;7.70;96.70;;;;;;5041186;28;20124;-70
2022/02/07 12:00:00;;;;;;;20.83;3.28;;;7.70;96.60;;;;;;5042382;28;20048;-70
2022/02/07 12:02:37;;;;;;;20.75;3.05;;;7.70;97.00;;;;;;5026205;28;20476;-70
2022/02/07 12:05:08;;;;;;;24.83;4.22;;;7.70;97.10;;;;;;5041686;28;20111;-70
2022/02/07 12:07:38;;;;;;;21.10;4.22;;;7.70;97.00;;;;;;5041485;28;20485;-70
2022/02/07 12:12:40;;;;;;;19.25;3.08;;;7.80;97.40;;;;;;5043450;28;20111;-71
2022/02/07 12:15:13;;;;;;;16.25;2.42;;;7.90;97.00;;;;;;5025593;28;20490;-70
2022/02/07 12:17:40;;;;;;;18.85;3.28;;;7.90;96.10;;;;;;5036089;28;20053;-70
2022/02/07 12:20:07;;;;;;;19.35;3.15;;;8.10;97.20;;;;;;5040522;28;20052;-70
2022/02/07 12:22:56;;;;;;;16.98;3.10;;;8.30;97.10;;;;;;5043843;28;20497;-70
2022/02/07 12:25:38;;;;;;;19.63;3.20;;;8.30;95.30;;;;;;5041704;28;20044;-71
2022/02/07 12:28:08;;;;;;;12.32;2.55;;;8.40;95.50;;;;;;5041244;28;20065;-71
2022/02/07 12:33:21;;;;;;;;;;;8.00;95.10;;;;;;5043935;28;20042;-71
2022/02/07 12:35:47;;;;;;;12.98;2.55;;;7.80;94.60;;;;;;5038634;28;20388;-71
2022/02/07 12:38:12;;;;;;;17.80;2.40;;;7.80;95.10;;;;;;5038601;28;20037;-71
2022/02/07 12:40:42;;;;;;;19.48;2.70;;;7.80;94.70;;;;;;5042114;28;20531;-71
2022/02/07 12:43:11;;;;;;;17.63;3.20;;;7.90;95.50;;;;;;5040146;28;20044;-70
2022/02/07 12:45:42;;;;;;;16.45;3.22;;;8.10;95.80;;;;;;5038452;28;20072;-70
2022/02/07 12:48:13;;;;;;;17.42;3.10;;;8.10;95.50;;;;;;5039779;28;20048;-70
2022/02/07 12:50:41;;;;;;;21.05;2.97;;;8.10;95.80;;;;;;5022169;28;20060;-70
2022/02/07 12:53:07;;;;;;;16.30;2.85;;;8.10;96.20;;;;;;5040789;28;20047;-70
2022/02/07 12:55:34;;;;;;;18.30;2.85;;;8.10;96.60;;;;;;5054722;28;20486;-71
2022/02/07 12:58:01;;;;;;;14.77;2.72;;;8.10;96.40;;;;;;5036769;28;20409;-70
2022/02/07 13:00:27;;;;;;;12.95;2.47;;;8.10;96.30;;;;;;5025829;28;20049;-71
2022/02/07 13:02:53;;;;;;;17.15;2.38;;;8.10;96.20;;;;;;5040550;28;20128;-71
2022/02/07 13:05:20;;;;;;;16.20;2.42;;;8.00;95.80;;;;;;5041609;28;20135;-71
2022/02/07 13:07:49;;;;;;;12.32;2.53;;;8.00;95.60;;;;;;5037517;28;20464;-71
2022/02/07 13:10:22;;;;;;;16.25;2.60;;;7.80;95.20;;;;;;5039387;28;20143;-71
2022/02/07 13:15:22;;;;;;;14.57;2.90;;;7.50;96.00;;;;;;5035962;28;20138;-71
2022/02/07 13:17:54;;;;;;;18.90;2.85;;;7.40;96.20;;;;;;5040462;28;20552;-71
2022/02/07 13:20:22;;;;;;;14.07;2.47;;;7.30;96.40;;;;;;5042241;28;20512;-71
2022/02/07 13:22:59;;;;;;;12.77;3.05;;;7.30;95.80;;;;;;5025461;28;20053;-70
2022/02/07 13:25:25;;;;;;;14.70;2.53;;;7.30;95.50;;;;;;5037085;28;20121;-72
2022/02/07 13:27:55;;;;;;;14.70;2.25;;;7.20;95.90;;;;;;5040156;28;20489;-71
2022/02/07 13:30:21;;;;;;;17.35;2.90;;;7.10;95.70;;;;;;5039861;28;20419;-70
2022/02/07 13:32:49;;;;;;;17.20;2.55;;;7.00;95.60;;;;;;5036667;28;20073;-69
2022/02/07 13:35:16;;;;;;;15.20;2.13;;;7.00;95.90;;;;;;5024797;28;20056;-69
2022/02/07 13:37:43;;;;;;;15.40;2.67;;;7.00;96.10;;;;;;5022811;28;20079;-71
2022/02/07 13:40:26;;;;;;;13.52;1.92;;;6.90;96.20;;;;;;5041581;28;20044;-70
2022/02/07 13:42:54;;;;;;;12.50;2.45;;;7.00;96.00;;;;;;5038409;28;20052;-70
2022/02/07 13:45:22;;;;;;;14.18;2.08;;;7.00;96.00;;;;;;5024699;28;20045;-69
2022/02/07 13:47:53;;;;;;;11.65;1.88;;;7.10;96.30;;;;;;5039130;28;20068;-69
2022/02/07 13:50:22;;;;;;;13.57;2.20;;;7.30;96.10;;;;;;5040414;28;20049;-69
2022/02/07 13:52:50;;;;;;;14.50;2.38;;;7.50;95.90;;;;;;5040412;28;20044;-69
2022/02/07 13:55:19;;;;;;;11.02;1.85;;;7.70;95.60;;;;;;5038114;28;20056;-69
2022/02/07 13:57:51;;;;;;;13.70;2.17;;;7.70;95.70;;;;;;5039245;28;20107;-69
2022/02/07 14:00:21;;;;;;;17.10;2.90;;;7.50;95.80;;;;;;5038361;28;20135;-69
2022/02/07 14:02:48;;;;;;;22.25;2.72;;;7.40;96.10;;;;;;5042074;28;20647;-70
2022/02/07 14:05:14;;;;;;;22.65;3.15;;;7.30;96.80;;;;;;5035116;28;20037;-68
2022/02/07 14:07:52;;;;;;;21.77;2.72;;;7.10;97.20;;;;;;5042421;28;20045;-69
2022/02/07 14:10:20;;;;;;;18.33;2.28;;;7.10;97.70;;;;;;5044723;28;20474;-69
2022/02/07 14:12:46;;;;;;;14.70;2.17;;;7.10;98.10;;;;;;5043481;28;20041;-69
2022/02/07 14:15:12;;;;;;;21.23;2.42;;;7.10;98.60;;;;;;5036349;28;20044;-69
2022/02/07 14:17:43;;;;;;;14.25;2.33;;;7.30;98.70;;;;;;5037467;28;20394;-69
2022/02/07 14:20:18;;;;;;;13.02;1.90;;;7.30;99.00;;;;;;5036206;28;20049;-68
2022/02/07 14:22:44;;;;;;;13.95;2.40;;;7.50;99.00;;;;;;5038207;28;20053;-68
2022/02/07 14:25:12;;;;;;;21.13;2.80;;;7.60;98.50;;;;;;5040191;28;20451;-68
2022/02/07 14:27:38;;;;;;;19.83;2.80;;;7.70;98.10;;;;;;5038996;28;20060;-69
2022/02/07 14:30:04;;;;;;;16.85;2.45;;;7.70;98.20;;;;;;5038280;28;20060;-69
2022/02/07 14:32:30;;;;;;;16.98;2.00;;;7.80;98.20;;;;;;5037042;28;20052;-69
2022/02/07 14:34:56;;;;;;;12.02;1.70;;;7.80;97.90;;;;;;5039957;28;20516;-69
2022/02/07 14:37:24;;;;;;;10.23;1.60;;;7.70;97.50;;;;;;5042353;28;20132;-69
2022/02/07 14:39:50;;;;;;;17.13;2.17;;;7.70;98.10;;;;;;5031417;28;20072;-69
2022/02/07 14:42:16;;;;;;;15.73;1.98;;;7.70;98.50;;;;;;5020451;28;20045;-69
2022/02/07 14:44:58;;;;;;;16.55;2.28;;;7.70;98.30;;;;;;5038570;28;20497;-69
2022/02/07 14:48:06;;;;;;;12.00;1.95;;;7.60;97.30;;;;;;5036807;28;20060;-69
2022/02/07 14:50:15;;;;;;;14.82;2.13;;;7.50;97.80;;;;;;5035287;28;20037;-69
2022/02/07 14:52:42;;;;;;;14.98;2.30;;;7.40;97.90;;;;;;5035408;28;20059;-69
2022/02/07 14:55:08;;;;;;;14.93;2.15;;;7.30;97.00;;;;;;5038926;28;20057;-70
2022/02/07 14:57:34;;;;;;;14.45;1.83;;;7.20;97.50;;;;;;5037300;28;20049;-70
2022/02/07 15:00:00;;;;;;;10.50;1.67;;;7.10;97.40;;;;;;5040696;28;20037;-71
2022/02/07 15:02:26;;;;;;;8.85;1.48;;;7.10;97.70;;;;;;5036429;28;20053;-71
2022/02/07 15:04:53;;;;;;;12.63;2.28;;;7.00;97.50;;;;;;5036540;28;20041;-70
2022/02/07 15:07:22;;;;;;;16.10;1.55;;;7.00;98.00;;;;;;5024387;28;20065;-70
2022/02/07 15:09:51;;;;;;;12.68;1.90;;;6.80;98.10;;;;;;5037797;28;20080;-70
2022/02/07 15:12:17;;;;;;;11.80;1.90;;;6.80;98.40;;;;;;5024889;28;20049;-70
2022/02/07 15:14:49;;;;;;;12.65;2.45;;;6.90;98.80;;;;;;5040117;28;20045;-70
2022/02/07 15:17:21;;;;;;;17.33;2.25;;;6.80;98.90;;;;;;5036794;28;20413;-71
2022/02/07 15:19:47;;;;;;;16.73;2.58;;;6.70;99.10;;;;;;5050679;28;20050;-70
2022/02/07 15:22:13;;;;;;;13.63;1.90;;;6.70;99.50;;;;;;5037099;28;20080;-71
2022/02/07 15:24:39;;;;;;;15.85;2.40;;;6.70;99.20;;;;;;5023476;28;20448;-70
2022/02/07 15:27:09;;;;;;;15.68;2.40;;;6.60;99.30;;;;;;5018498;28;20381;-70
2022/02/07 15:29:37;;;;;;;10.85;2.10;;;6.60;99.40;;;;;;5037900;28;20462;-70
2022/02/07 15:32:23;;;;;;;8.15;1.70;;;6.60;99.10;;;;;;5037222;28;20041;-70
2022/02/07 15:35:08;;;;;;;11.07;1.83;;;6.60;99.10;;;;;;5036622;28;20056;-71
2022/02/07 15:37:35;;;;;;;12.15;2.15;;;6.60;99.20;;;;;;5027173;28;20080;-71